DAL1172 KLAS-KLAX
Flight info
| Callsign | DAL1172 |
|---|---|
| Flight time | N/A |
| Altitude | 28000 |
| Route | RADYR2 BLAQQ SHTNR ANJLL4 |
| Aircraft | A320/M-SDE3FGHIRWY/LB1 |
Departure
| Time | 2026-05-07 23:31 |
|---|---|
| Airport | Harry Reid International Airport (KLAS) |
Arrival
| Time | N/A |
|---|---|
| Airport | Los Angeles International Airport (KLAX) |
| Time | Latitude | Longitude | Altitude | Speed | Heading |
|---|---|---|---|---|---|
| 2026-05-07 22:49 | 36.08533 | -115.13793 | 2093 ft | 0 kts | 0° |
| 2026-05-07 23:16 | 36.08524 | -115.13793 | 2092 ft | 4 kts | 0° |
| 2026-05-07 23:16 | 36.08497 | -115.13793 | 2092 ft | 4 kts | 0° |
| 2026-05-07 23:16 | 36.08475 | -115.13793 | 2092 ft | 3 kts | 0° |
| 2026-05-07 23:16 | 36.08451 | -115.13799 | 2092 ft | 4 kts | 46° |
| 2026-05-07 23:17 | 36.08443 | -115.13825 | 2092 ft | 3 kts | 90° |
| 2026-05-07 23:17 | 36.08443 | -115.13843 | 2092 ft | 0 kts | 90° |
| 2026-05-07 23:20 | 36.08443 | -115.13837 | 2092 ft | 3 kts | 89° |
| 2026-05-07 23:21 | 36.08444 | -115.13796 | 2092 ft | 7 kts | 88° |
| 2026-05-07 23:21 | 36.08446 | -115.13726 | 2092 ft | 10 kts | 89° |
| 2026-05-07 23:21 | 36.08444 | -115.13624 | 2092 ft | 10 kts | 91° |
| 2026-05-07 23:21 | 36.08443 | -115.13537 | 2092 ft | 8 kts | 90° |
| 2026-05-07 23:22 | 36.08425 | -115.13462 | 2093 ft | 11 kts | 126° |
| 2026-05-07 23:22 | 36.08383 | -115.13405 | 2093 ft | 9 kts | 134° |
| 2026-05-07 23:22 | 36.08306 | -115.13374 | 2092 ft | 15 kts | 178° |
| 2026-05-07 23:22 | 36.08192 | -115.13375 | 2089 ft | 17 kts | 180° |
| 2026-05-07 23:23 | 36.08082 | -115.13374 | 2089 ft | 17 kts | 180° |
| 2026-05-07 23:23 | 36.07964 | -115.13373 | 2089 ft | 12 kts | 179° |
| 2026-05-07 23:23 | 36.07873 | -115.13373 | 2089 ft | 14 kts | 169° |
| 2026-05-07 23:23 | 36.07828 | -115.13262 | 2087 ft | 19 kts | 91° |
| 2026-05-07 23:24 | 36.07829 | -115.13074 | 2081 ft | 25 kts | 90° |
| 2026-05-07 23:24 | 36.07828 | -115.12863 | 2072 ft | 28 kts | 90° |
| 2026-05-07 23:24 | 36.07828 | -115.12697 | 2065 ft | 10 kts | 90° |
| 2026-05-07 23:24 | 36.07781 | -115.12635 | 2063 ft | 9 kts | 164° |
| 2026-05-07 23:25 | 36.07741 | -115.12610 | 2062 ft | 0 kts | 152° |
| 2026-05-07 23:26 | 36.07739 | -115.12609 | 2062 ft | 2 kts | 152° |
| 2026-05-07 23:26 | 36.07734 | -115.12606 | 2062 ft | 0 kts | 153° |
| 2026-05-07 23:29 | 36.07730 | -115.12603 | 2062 ft | 3 kts | 153° |
| 2026-05-07 23:30 | 36.07681 | -115.12590 | 2062 ft | 11 kts | 179° |
| 2026-05-07 23:30 | 36.07641 | -115.12683 | 2067 ft | 21 kts | 268° |
| 2026-05-07 23:30 | 36.07641 | -115.13026 | 2079 ft | 69 kts | 270° |
| 2026-05-07 23:30 | 36.07641 | -115.13876 | 2093 ft | 130 kts | 270° |
| 2026-05-07 23:31 | 36.07641 | -115.15204 | 2122 ft | 177 kts | 270° |
| 2026-05-07 23:31 | 36.07652 | -115.16700 | 2817 ft | 169 kts | 272° |
| 2026-05-07 23:31 | 36.07662 | -115.18155 | 3475 ft | 171 kts | 268° |
| 2026-05-07 23:31 | 36.07643 | -115.19615 | 4109 ft | 167 kts | 268° |
| 2026-05-07 23:32 | 36.07601 | -115.21119 | 4403 ft | 185 kts | 261° |
| 2026-05-07 23:32 | 36.07229 | -115.22716 | 4659 ft | 204 kts | 252° |
| 2026-05-07 23:32 | 36.06834 | -115.24500 | 4869 ft | 226 kts | 249° |
| 2026-05-07 23:32 | 36.05916 | -115.26136 | 5129 ft | 246 kts | 217° |
| 2026-05-07 23:33 | 36.04344 | -115.27074 | 5656 ft | 254 kts | 201° |
| 2026-05-07 23:33 | 36.02683 | -115.27842 | 6354 ft | 257 kts | 201° |
| 2026-05-07 23:33 | 36.00998 | -115.28605 | 7036 ft | 260 kts | 201° |
| 2026-05-07 23:33 | 35.99227 | -115.29383 | 7462 ft | 279 kts | 197° |
| 2026-05-07 23:34 | 35.97301 | -115.29895 | 8106 ft | 286 kts | 193° |
| 2026-05-07 23:34 | 35.95323 | -115.30380 | 8845 ft | 292 kts | 193° |
| 2026-05-07 23:34 | 35.93291 | -115.30875 | 9643 ft | 295 kts | 194° |
| 2026-05-07 23:34 | 35.91282 | -115.31364 | 10270 ft | 306 kts | 194° |
| 2026-05-07 23:35 | 35.89112 | -115.31897 | 10487 ft | 329 kts | 193° |
| 2026-05-07 23:35 | 35.86821 | -115.32461 | 10980 ft | 340 kts | 193° |
| 2026-05-07 23:35 | 35.84480 | -115.33034 | 11624 ft | 346 kts | 193° |
| 2026-05-07 23:35 | 35.82098 | -115.33615 | 12309 ft | 351 kts | 191° |
| 2026-05-07 23:36 | 35.79691 | -115.34197 | 13034 ft | 355 kts | 191° |
| 2026-05-07 23:36 | 35.77244 | -115.34791 | 13746 ft | 360 kts | 191° |
| 2026-05-07 23:36 | 35.75578 | -115.35198 | 14183 ft | 362 kts | 191° |
| 2026-05-07 23:36 | 35.73100 | -115.35804 | 14815 ft | 366 kts | 191° |
| 2026-05-07 23:37 | 35.70581 | -115.36422 | 15431 ft | 370 kts | 191° |
| 2026-05-07 23:37 | 35.68040 | -115.37041 | 16035 ft | 375 kts | 191° |
| 2026-05-07 23:37 | 35.65466 | -115.37670 | 16627 ft | 379 kts | 191° |
| 2026-05-07 23:37 | 35.62865 | -115.38306 | 17233 ft | 383 kts | 191° |
| 2026-05-07 23:38 | 35.60215 | -115.38688 | 17825 ft | 387 kts | 180° |
| 2026-05-07 23:38 | 35.57519 | -115.38556 | 18391 ft | 391 kts | 175° |
| 2026-05-07 23:38 | 35.54785 | -115.38346 | 18901 ft | 395 kts | 175° |
| 2026-05-07 23:38 | 35.52021 | -115.38137 | 19426 ft | 399 kts | 175° |
| 2026-05-07 23:39 | 35.49243 | -115.37932 | 19942 ft | 402 kts | 175° |
| 2026-05-07 23:39 | 35.46429 | -115.37890 | 20463 ft | 407 kts | 184° |
| 2026-05-07 23:39 | 35.43631 | -115.38452 | 20976 ft | 411 kts | 195° |
| 2026-05-07 23:39 | 35.40930 | -115.39642 | 21495 ft | 414 kts | 206° |
| 2026-05-07 23:40 | 35.38364 | -115.41277 | 21984 ft | 418 kts | 208° |
| 2026-05-07 23:40 | 35.35774 | -115.42952 | 22491 ft | 422 kts | 208° |
| 2026-05-07 23:40 | 35.33166 | -115.44625 | 22988 ft | 426 kts | 208° |
| 2026-05-07 23:40 | 35.30521 | -115.46309 | 23505 ft | 430 kts | 208° |
| 2026-05-07 23:41 | 35.27865 | -115.47997 | 23911 ft | 433 kts | 208° |
| 2026-05-07 23:41 | 35.25178 | -115.49705 | 24336 ft | 436 kts | 208° |
| 2026-05-07 23:41 | 35.22477 | -115.51419 | 24758 ft | 438 kts | 208° |
| 2026-05-07 23:41 | 35.19769 | -115.53137 | 25176 ft | 441 kts | 208° |
| 2026-05-07 23:42 | 35.17038 | -115.54872 | 25557 ft | 443 kts | 208° |
| 2026-05-07 23:42 | 35.14313 | -115.56651 | 25945 ft | 445 kts | 212° |
| 2026-05-07 23:42 | 35.11786 | -115.58850 | 26333 ft | 446 kts | 221° |
| 2026-05-07 23:42 | 35.09564 | -115.61491 | 26717 ft | 447 kts | 228° |
| 2026-05-07 23:43 | 35.07416 | -115.64257 | 27080 ft | 450 kts | 227° |
| 2026-05-07 23:43 | 35.05261 | -115.67023 | 27434 ft | 452 kts | 227° |
| 2026-05-07 23:43 | 35.03084 | -115.69809 | 27784 ft | 454 kts | 227° |
| 2026-05-07 23:43 | 35.00907 | -115.72587 | 27887 ft | 450 kts | 227° |
| 2026-05-07 23:44 | 34.98788 | -115.75281 | 27902 ft | 434 kts | 227° |
| 2026-05-07 23:44 | 34.96709 | -115.77914 | 27883 ft | 428 kts | 227° |
| 2026-05-07 23:44 | 34.94674 | -115.80493 | 27886 ft | 426 kts | 227° |
| 2026-05-07 23:44 | 34.92604 | -115.83125 | 27871 ft | 425 kts | 227° |
| 2026-05-07 23:45 | 34.90554 | -115.85739 | 27884 ft | 425 kts | 227° |
| 2026-05-07 23:45 | 34.88520 | -115.88332 | 27879 ft | 425 kts | 227° |
| 2026-05-07 23:45 | 34.86473 | -115.90938 | 27870 ft | 425 kts | 227° |
| 2026-05-07 23:45 | 34.84458 | -115.93497 | 27868 ft | 425 kts | 227° |
| 2026-05-07 23:46 | 34.82414 | -115.96088 | 27862 ft | 424 kts | 227° |
| 2026-05-07 23:46 | 34.80341 | -115.98710 | 27871 ft | 424 kts | 227° |
| 2026-05-07 23:46 | 34.78292 | -116.01299 | 27863 ft | 424 kts | 227° |
| 2026-05-07 23:46 | 34.76276 | -116.03845 | 27865 ft | 424 kts | 227° |
| 2026-05-07 23:47 | 34.74236 | -116.06440 | 27854 ft | 424 kts | 227° |
| 2026-05-07 23:47 | 34.72205 | -116.09032 | 27856 ft | 424 kts | 227° |
| 2026-05-07 23:47 | 34.70168 | -116.11634 | 27857 ft | 424 kts | 227° |
| 2026-05-07 23:47 | 34.68130 | -116.14232 | 27864 ft | 424 kts | 227° |
| 2026-05-07 23:48 | 34.66091 | -116.16826 | 27862 ft | 424 kts | 227° |
| 2026-05-07 23:48 | 34.64054 | -116.19414 | 27864 ft | 425 kts | 227° |
| 2026-05-07 23:48 | 34.62010 | -116.22008 | 27871 ft | 424 kts | 227° |
| 2026-05-07 23:48 | 34.59973 | -116.24589 | 27864 ft | 424 kts | 227° |
| 2026-05-07 23:49 | 34.57931 | -116.27177 | 27865 ft | 424 kts | 227° |
| 2026-05-07 23:49 | 34.55889 | -116.29766 | 27874 ft | 424 kts | 227° |
| 2026-05-07 23:49 | 34.53853 | -116.32345 | 27875 ft | 424 kts | 227° |
| 2026-05-07 23:49 | 34.51811 | -116.34926 | 27877 ft | 424 kts | 227° |
| 2026-05-07 23:50 | 34.49772 | -116.37496 | 27879 ft | 424 kts | 227° |
| 2026-05-07 23:50 | 34.47726 | -116.40072 | 27899 ft | 423 kts | 227° |
| 2026-05-07 23:50 | 34.45681 | -116.42650 | 27895 ft | 424 kts | 227° |
| 2026-05-07 23:50 | 34.43640 | -116.45226 | 27898 ft | 424 kts | 228° |
| 2026-05-07 23:51 | 34.41771 | -116.47971 | 27899 ft | 422 kts | 238° |
| 2026-05-07 23:51 | 34.40310 | -116.51024 | 27925 ft | 419 kts | 246° |
| 2026-05-07 23:51 | 34.39025 | -116.54181 | 27746 ft | 414 kts | 246° |
| 2026-05-07 23:51 | 34.37757 | -116.57270 | 27476 ft | 407 kts | 246° |
| 2026-05-07 23:52 | 34.36496 | -116.60322 | 27219 ft | 402 kts | 245° |
| 2026-05-07 23:52 | 34.35253 | -116.63324 | 26985 ft | 399 kts | 245° |
| 2026-05-07 23:52 | 34.34017 | -116.66309 | 26659 ft | 394 kts | 245° |
| 2026-05-07 23:52 | 34.32797 | -116.69262 | 26212 ft | 392 kts | 246° |
| 2026-05-07 23:53 | 34.31598 | -116.72214 | 25783 ft | 390 kts | 246° |
| 2026-05-07 23:53 | 34.30417 | -116.75163 | 25336 ft | 389 kts | 246° |
| 2026-05-07 23:53 | 34.29244 | -116.78105 | 24884 ft | 388 kts | 246° |
| 2026-05-07 23:53 | 34.28074 | -116.81040 | 24397 ft | 387 kts | 246° |
| 2026-05-07 23:54 | 34.26902 | -116.83965 | 23932 ft | 387 kts | 246° |
| 2026-05-07 23:54 | 34.25723 | -116.86898 | 23433 ft | 387 kts | 246° |
| 2026-05-07 23:54 | 34.24548 | -116.89819 | 22937 ft | 385 kts | 246° |
| 2026-05-07 23:54 | 34.23379 | -116.92709 | 22488 ft | 383 kts | 246° |
| 2026-05-07 23:55 | 34.22207 | -116.95598 | 22015 ft | 381 kts | 246° |
| 2026-05-07 23:55 | 34.21083 | -116.98484 | 21562 ft | 378 kts | 251° |
| 2026-05-07 23:55 | 34.20242 | -117.01473 | 21109 ft | 375 kts | 254° |
| 2026-05-07 23:55 | 34.19432 | -117.04465 | 20667 ft | 373 kts | 254° |
| 2026-05-07 23:56 | 34.18632 | -117.07433 | 20226 ft | 370 kts | 254° |
| 2026-05-07 23:56 | 34.17835 | -117.10384 | 19791 ft | 369 kts | 254° |
| 2026-05-07 23:56 | 34.17052 | -117.13283 | 19361 ft | 368 kts | 254° |
| 2026-05-07 23:56 | 34.16262 | -117.16195 | 18916 ft | 360 kts | 254° |
| 2026-05-07 23:57 | 34.15484 | -117.19041 | 18521 ft | 347 kts | 253° |
| 2026-05-07 23:57 | 34.14738 | -117.21762 | 18105 ft | 337 kts | 253° |
| 2026-05-07 23:57 | 34.14022 | -117.24365 | 17730 ft | 325 kts | 253° |
| 2026-05-07 23:57 | 34.13318 | -117.26920 | 17376 ft | 319 kts | 254° |
| 2026-05-07 23:58 | 34.12613 | -117.29482 | 16934 ft | 316 kts | 253° |
| 2026-05-07 23:58 | 34.11922 | -117.31983 | 16569 ft | 317 kts | 254° |
| 2026-05-07 23:58 | 34.11225 | -117.34500 | 16200 ft | 317 kts | 254° |
| 2026-05-07 23:58 | 34.10524 | -117.37034 | 15832 ft | 318 kts | 254° |
| 2026-05-07 23:59 | 34.09840 | -117.39607 | 15461 ft | 318 kts | 255° |
| 2026-05-07 23:59 | 34.09204 | -117.42124 | 15090 ft | 319 kts | 254° |
| 2026-05-07 23:59 | 34.08566 | -117.44724 | 14712 ft | 319 kts | 256° |
| 2026-05-07 23:59 | 34.07939 | -117.47285 | 14347 ft | 320 kts | 257° |
| 2026-05-08 00:00 | 34.07321 | -117.49870 | 13979 ft | 320 kts | 258° |
| 2026-05-08 00:00 | 34.06915 | -117.52525 | 13460 ft | 324 kts | 262° |
| 2026-05-08 00:00 | 34.06528 | -117.55206 | 12993 ft | 326 kts | 263° |
| 2026-05-08 00:00 | 34.06144 | -117.57848 | 12719 ft | 319 kts | 263° |
| 2026-05-08 00:01 | 34.05757 | -117.60491 | 12103 ft | 314 kts | 262° |
| 2026-05-08 00:01 | 34.05378 | -117.63056 | 11544 ft | 308 kts | 263° |
| 2026-05-08 00:01 | 34.05005 | -117.65576 | 11067 ft | 303 kts | 262° |
| 2026-05-08 00:01 | 34.04638 | -117.68054 | 10633 ft | 299 kts | 263° |
| 2026-05-08 00:02 | 34.04274 | -117.70509 | 10225 ft | 294 kts | 263° |
| 2026-05-08 00:02 | 34.03915 | -117.72919 | 10158 ft | 294 kts | 262° |
| 2026-05-08 00:02 | 34.03554 | -117.75348 | 10037 ft | 294 kts | 263° |
| 2026-05-08 00:02 | 34.03194 | -117.77773 | 9717 ft | 296 kts | 262° |
| 2026-05-08 00:03 | 34.02835 | -117.80187 | 9398 ft | 292 kts | 263° |
| 2026-05-08 00:03 | 34.02474 | -117.82594 | 8809 ft | 287 kts | 263° |
| 2026-05-08 00:03 | 34.02126 | -117.84935 | 8155 ft | 283 kts | 262° |
| 2026-05-08 00:03 | 34.01780 | -117.87255 | 7583 ft | 276 kts | 263° |
| 2026-05-08 00:04 | 34.01445 | -117.89498 | 7078 ft | 270 kts | 261° |
| 2026-05-08 00:04 | 34.01115 | -117.91691 | 6559 ft | 263 kts | 261° |
| 2026-05-08 00:04 | 34.00789 | -117.93851 | 6095 ft | 262 kts | 261° |
| 2026-05-08 00:04 | 34.00465 | -117.96003 | 5622 ft | 260 kts | 261° |
| 2026-05-08 00:05 | 34.00144 | -117.98140 | 5190 ft | 255 kts | 261° |
| 2026-05-08 00:05 | 33.99843 | -118.00139 | 5124 ft | 231 kts | 261° |
| 2026-05-08 00:05 | 33.99564 | -118.01986 | 5064 ft | 225 kts | 261° |
| 2026-05-08 00:05 | 33.99244 | -118.03844 | 4982 ft | 221 kts | 253° |
| 2026-05-08 00:06 | 33.98784 | -118.05566 | 4883 ft | 214 kts | 259° |
| 2026-05-08 00:06 | 33.98532 | -118.07287 | 4786 ft | 213 kts | 263° |
| 2026-05-08 00:06 | 33.98345 | -118.09062 | 4705 ft | 214 kts | 264° |
| 2026-05-08 00:06 | 33.98168 | -118.10843 | 4617 ft | 213 kts | 264° |
| 2026-05-08 00:07 | 33.97989 | -118.12648 | 4449 ft | 214 kts | 264° |
| 2026-05-08 00:07 | 33.97812 | -118.14421 | 4197 ft | 213 kts | 264° |
| 2026-05-08 00:07 | 33.97636 | -118.16186 | 3946 ft | 212 kts | 264° |
| 2026-05-08 00:07 | 33.97459 | -118.17946 | 3682 ft | 211 kts | 264° |
| 2026-05-08 00:08 | 33.97284 | -118.19691 | 3424 ft | 209 kts | 264° |
| 2026-05-08 00:08 | 33.97110 | -118.21425 | 3154 ft | 207 kts | 264° |
| 2026-05-08 00:08 | 33.96937 | -118.23144 | 2885 ft | 206 kts | 264° |
| 2026-05-08 00:08 | 33.96766 | -118.24848 | 2627 ft | 206 kts | 263° |
| 2026-05-08 00:09 | 33.96594 | -118.26556 | 2356 ft | 204 kts | 263° |
| 2026-05-08 00:09 | 33.96422 | -118.28257 | 2092 ft | 205 kts | 263° |
| 2026-05-08 00:09 | 33.96251 | -118.29947 | 1818 ft | 205 kts | 262° |
| 2026-05-08 00:09 | 33.96084 | -118.31602 | 1548 ft | 194 kts | 261° |
| 2026-05-08 00:10 | 33.95924 | -118.33184 | 1297 ft | 187 kts | 261° |
| 2026-05-08 00:10 | 33.95765 | -118.34741 | 1061 ft | 186 kts | 263° |